Wednesday, April 25, 2018, 5:05 AM EDT
Back to Local

KIJD, Willimantic Windham Airport

Location: North Windham, CT, United States Lat: 41.75
Local Time: 5:05 AM EDT ( 9:05 GMT) Lon: -72.183
Time Zone: US/Eastern Elev: 246 ft

Show me the last for .
Show Decoded

2018-04-25 04:52 METAR KIJD 250852Z AUTO 00000KT 9SM -RA SCT047 OVC065 10/08 A3011 RMK AO2 SLP196
                 P0002 60002 T01000078 56025 $ =
2018-04-25 03:52 METAR KIJD 250752Z AUTO 00000KT 10SM -RA SCT065 BKN085 OVC100 11/07 A3013 RMK
                 AO2 RAB46 SLP202 P0000 T01110067 $ =
2018-04-25 02:52 METAR KIJD 250652Z AUTO VRB03KT 10SM FEW055 BKN110 11/06 A3015 RMK AO2 SLP209
                 T01110056 $ =
2018-04-25 01:52 METAR KIJD 250552Z AUTO 00000KT 10SM SCT036 BKN046 OVC055 11/04 A3018 RMK AO2
                 SLP220 T01110044 10139 20111 58026 $ =
2018-04-25 00:52 METAR KIJD 250452Z AUTO 00000KT 10SM CLR 11/03 A3022 RMK AO2 SLP232 T01110033
                 401891006 $ =
2018-04-24 23:52 METAR KIJD 250352Z AUTO 00000KT 10SM BKN034 BKN043 11/03 A3024 RMK AO2 SLP241
                 T01110033 $ =
2018-04-24 22:52 METAR KIJD 250252Z AUTO 15004KT 10SM FEW035 BKN070 11/04 A3026 RMK AO2 SLP247
                 T01110039 58001 $ =
2018-04-24 21:52 METAR KIJD 250152Z AUTO 16004KT 10SM FEW055 BKN070 12/03 A3028 RMK AO2 SLP253
                 T01170033 $ =
2018-04-24 20:52 METAR KIJD 250052Z AUTO 18009KT 10SM BKN050 13/02 A3028 RMK AO2 SLP253 T01280022
                 $ =
2018-04-24 19:52 METAR KIJD 242352Z AUTO 18006KT 10SM CLR 14/03 A3026 RMK AO2 SLP249 T01390033
                 10189 20139 $ =
2018-04-24 18:52 METAR KIJD 242252Z AUTO 17007KT 10SM CLR 15/04 A3026 RMK AO2 SLP249 T01500039 $
                 =
2018-04-24 17:52 METAR KIJD 242152Z AUTO 18009KT 10SM CLR 16/04 A3028 RMK AO2 SLP254 T01560039 =
2018-04-24 16:52 METAR KIJD 242052Z AUTO 20007KT 10SM CLR 17/02 A3029 RMK AO2 SLP256 T01670022
                 56016 =
2018-04-24 15:52 METAR KIJD 241952Z AUTO 19008G18KT 10SM CLR 18/02 A3029 RMK AO2 SLP257 T01780022
                 =
2018-04-24 14:52 METAR KIJD 241852Z AUTO 22011KT 10SM CLR 18/M03 A3031 RMK AO2 SLP265 T01831028 =
2018-04-24 13:52 METAR KIJD 241752Z AUTO 18011KT 10SM CLR 19/M03 A3033 RMK AO2 SLP272 6////
                 T01891028 10189 20039 56022 =
2018-04-24 12:52 METAR KIJD 241652Z AUTO 22008G18KT 180V260 10SM CLR 18/M02 A3035 RMK AO2 SLP276
                 T01831017 =
2018-04-24 11:52 METAR KIJD 241552Z AUTO 18012G17KT 10SM CLR 18/M02 A3038 RMK AO2 SLP286
                 T01781022 PWINO $ =
2018-04-24 10:52 METAR KIJD 241452Z AUTO 17009KT CLR 16/M02 A3040 RMK AO2 SLP294 6//// T01611017
                 $ =
2018-04-24 09:52 METAR KIJD 241352Z AUTO 18006KT 10SM CLR 14/01 A3043 RMK AO2 SLP303 T01390006 =
2018-04-24 08:52 METAR KIJD 241252Z AUTO 00000KT 10SM CLR 08/02 A3043 RMK AO2 SLP305 T00830022 =
2018-04-24 07:52 METAR KIJD 241152Z AUTO 00000KT 10SM CLR 04/00 A3044 RMK AO2 SLP310 T00390000
                 10039 21006 51005 =
2018-04-24 06:52 METAR KIJD 241052Z AUTO 00000KT 10SM CLR 01/M02 A3044 RMK AO2 SLP310 T00061022 $
                 =
2018-04-24 05:52 METAR KIJD 240952Z AUTO 00000KT 10SM CLR M01/M03 A3043 RMK AO2 SLP306 T10061028
                 $ =

Support USWX by starting your Amazon purchase here.